createdAt,value
2016-08-26T00:00:13.605Z,0
2016-08-26T00:01:13.596Z,0
2016-08-26T00:02:13.577Z,0
2016-08-26T00:03:13.565Z,0
2016-08-26T00:04:13.546Z,0
2016-08-26T00:05:13.529Z,0
2016-08-26T00:06:13.531Z,0
2016-08-26T00:07:13.503Z,0
2016-08-26T00:08:13.487Z,0
2016-08-26T00:09:13.472Z,0
2016-08-26T00:10:26.205Z,0
2016-08-26T00:11:13.442Z,0
2016-08-26T00:12:13.423Z,0
2016-08-26T00:13:13.410Z,0
2016-08-26T00:14:13.392Z,0
2016-08-26T00:15:13.377Z,0
2016-08-26T00:16:13.366Z,0
2016-08-26T00:17:13.348Z,0
2016-08-26T00:18:13.336Z,0
2016-08-26T00:19:13.319Z,0
2016-08-26T00:20:13.304Z,0
2016-08-26T00:21:13.292Z,0
2016-08-26T00:22:13.275Z,0
2016-08-26T00:23:13.279Z,0
2016-08-26T00:24:13.247Z,0
2016-08-26T00:25:13.230Z,0
2016-08-26T00:26:13.221Z,0
2016-08-26T00:27:13.205Z,0
2016-08-26T00:28:13.192Z,0
2016-08-26T00:29:13.173Z,0
2016-08-26T00:30:13.154Z,0
2016-08-26T00:31:13.159Z,0
2016-08-26T00:32:13.127Z,0
2016-08-26T00:33:13.113Z,0
2016-08-26T00:34:13.096Z,0
2016-08-26T00:35:13.080Z,0
2016-08-26T00:36:13.069Z,0
2016-08-26T00:37:13.051Z,0
2016-08-26T00:38:13.037Z,0
2016-08-26T00:39:13.021Z,0
2016-08-26T00:40:13.006Z,0
2016-08-26T00:41:12.996Z,0
2016-08-26T00:42:12.978Z,0
2016-08-26T00:43:12.964Z,0
2016-08-26T00:44:12.945Z,0
2016-08-26T00:45:12.928Z,0
2016-08-26T00:46:12.919Z,0
2016-08-26T00:47:12.903Z,0
2016-08-26T00:48:12.887Z,0
2016-08-26T00:49:12.869Z,0
2016-08-26T00:50:12.857Z,0
2016-08-26T00:51:12.843Z,0
2016-08-26T00:52:12.823Z,0
2016-08-26T00:53:12.810Z,0
2016-08-26T00:54:12.798Z,0
2016-08-26T00:55:12.781Z,0
2016-08-26T00:56:12.766Z,0
2016-08-26T00:57:12.748Z,0
2016-08-26T00:58:12.734Z,0
2016-08-26T00:59:12.722Z,0
2016-08-26T01:00:12.705Z,0
2016-08-26T01:01:12.694Z,0
2016-08-26T01:02:12.686Z,0
2016-08-26T01:03:12.658Z,0
2016-08-26T01:04:12.644Z,0
2016-08-26T01:05:12.627Z,0
2016-08-26T01:06:12.623Z,0
2016-08-26T01:07:12.596Z,0
2016-08-26T01:08:12.581Z,0
2016-08-26T01:09:12.568Z,0
2016-08-26T01:10:12.559Z,0
2016-08-26T01:11:12.544Z,0
2016-08-26T01:12:12.521Z,0
2016-08-26T01:13:12.504Z,0
2016-08-26T01:14:12.492Z,0
2016-08-26T01:15:12.482Z,0
2016-08-26T01:16:12.466Z,0
2016-08-26T01:17:12.456Z,0
2016-08-26T01:18:13.134Z,0
2016-08-26T01:19:12.415Z,0
2016-08-26T01:20:12.411Z,0
2016-08-26T01:21:12.392Z,0
2016-08-26T01:22:12.371Z,0
2016-08-26T01:23:12.360Z,0
2016-08-26T01:24:12.343Z,0
2016-08-26T01:25:12.324Z,0
2016-08-26T01:26:12.310Z,0
2016-08-26T01:27:12.291Z,0
2016-08-26T01:28:12.277Z,0
2016-08-26T01:29:12.269Z,0
2016-08-26T01:30:12.245Z,0
2016-08-26T01:31:12.239Z,0
2016-08-26T01:32:12.214Z,0
2016-08-26T01:33:12.198Z,0
2016-08-26T01:34:12.186Z,0
2016-08-26T01:35:12.169Z,0
2016-08-26T01:36:12.168Z,0
2016-08-26T01:37:12.138Z,0
2016-08-26T01:38:12.121Z,0
2016-08-26T01:39:12.108Z,0
2016-08-26T01:40:12.097Z,0
2016-08-26T01:41:12.077Z,0
2016-08-26T01:42:12.071Z,0
2016-08-26T01:43:12.045Z,0
2016-08-26T01:44:12.033Z,0
2016-08-26T01:45:12.020Z,0
2016-08-26T01:46:12.000Z,0
2016-08-26T01:47:11.981Z,0
2016-08-26T01:48:11.971Z,0
2016-08-26T01:49:11.955Z,0
2016-08-26T01:50:12.629Z,0
2016-08-26T01:51:11.929Z,0
2016-08-26T01:52:11.910Z,0
2016-08-26T01:53:11.889Z,0
2016-08-26T01:54:11.875Z,0
2016-08-26T01:55:11.867Z,0
2016-08-26T01:56:11.843Z,0
2016-08-26T01:57:12.519Z,0
2016-08-26T01:58:12.501Z,0
2016-08-26T01:59:11.798Z,0
2016-08-26T02:00:11.834Z,0
2016-08-26T02:01:11.766Z,0
2016-08-26T02:02:11.749Z,0
2016-08-26T02:03:11.732Z,0
2016-08-26T02:04:11.719Z,0
2016-08-26T02:05:11.703Z,0
2016-08-26T02:06:11.687Z,0
2016-08-26T02:07:12.362Z,0
2016-08-26T02:08:11.655Z,0
2016-08-26T02:09:11.642Z,0
2016-08-26T02:10:11.625Z,0
2016-08-26T02:11:11.612Z,0
2016-08-26T02:12:11.597Z,0
2016-08-26T02:13:11.576Z,0
2016-08-26T02:14:11.572Z,0
2016-08-26T02:15:11.544Z,0
2016-08-26T02:16:11.526Z,0
2016-08-26T02:17:11.518Z,0
2016-08-26T02:18:11.495Z,0
2016-08-26T02:19:11.481Z,0
2016-08-26T02:20:11.464Z,0
2016-08-26T02:21:11.462Z,0
2016-08-26T02:22:11.439Z,0
2016-08-26T02:23:11.418Z,0
2016-08-26T02:24:11.417Z,0
2016-08-26T02:25:11.385Z,0
2016-08-26T02:26:11.374Z,0
2016-08-26T02:27:11.353Z,0
2016-08-26T02:28:11.335Z,0
2016-08-26T02:29:11.320Z,0
2016-08-26T02:30:11.318Z,0
2016-08-26T02:31:11.291Z,0
2016-08-26T02:32:11.273Z,0
2016-08-26T02:33:11.259Z,0
2016-08-26T02:34:11.249Z,0
2016-08-26T02:35:11.237Z,0
2016-08-26T02:36:11.210Z,0
2016-08-26T02:37:11.191Z,0
2016-08-26T02:38:11.176Z,0
2016-08-26T02:39:11.164Z,0
2016-08-26T02:40:11.145Z,0
2016-08-26T02:41:11.131Z,0
2016-08-26T02:42:11.124Z,0
2016-08-26T02:43:11.109Z,0
2016-08-26T02:44:11.085Z,0
2016-08-26T02:45:11.074Z,0
2016-08-26T02:46:11.054Z,0
2016-08-26T02:47:11.039Z,0
2016-08-26T02:48:11.019Z,0
2016-08-26T02:49:11.007Z,0
2016-08-26T02:50:10.987Z,0
2016-08-26T02:51:10.973Z,0
2016-08-26T02:52:10.963Z,0
2016-08-26T02:53:10.938Z,0
2016-08-26T02:54:10.929Z,0
2016-08-26T02:55:10.906Z,0
2016-08-26T02:56:11.598Z,0
2016-08-26T02:57:10.875Z,0
2016-08-26T02:58:10.856Z,0
2016-08-26T02:59:10.846Z,0
2016-08-26T03:00:10.827Z,0
2016-08-26T03:01:10.811Z,0
2016-08-26T03:02:10.796Z,0
2016-08-26T03:03:10.782Z,0
2016-08-26T03:04:10.771Z,0
2016-08-26T03:05:10.753Z,0
2016-08-26T03:06:10.733Z,0
2016-08-26T03:07:10.713Z,0
2016-08-26T03:08:10.703Z,0
2016-08-26T03:09:10.688Z,0
2016-08-26T03:10:10.663Z,0
2016-08-26T03:11:10.648Z,0
2016-08-26T03:12:10.640Z,0
2016-08-26T03:13:10.621Z,0
2016-08-26T03:14:10.605Z,0
2016-08-26T03:15:10.599Z,0
2016-08-26T03:16:10.571Z,0
2016-08-26T03:17:10.553Z,0
2016-08-26T03:18:10.540Z,0
2016-08-26T03:19:10.526Z,0
2016-08-26T03:20:10.506Z,0
2016-08-26T03:21:10.492Z,0
2016-08-26T03:22:10.473Z,0
2016-08-26T03:23:10.457Z,0
2016-08-26T03:24:10.443Z,0
2016-08-26T03:25:10.422Z,0
2016-08-26T03:26:10.410Z,0
2016-08-26T03:27:10.393Z,0
2016-08-26T03:28:10.375Z,0
2016-08-26T03:29:10.369Z,0
2016-08-26T03:30:10.341Z,0
2016-08-26T03:31:10.342Z,0
2016-08-26T03:32:10.317Z,0
2016-08-26T03:33:10.295Z,0
2016-08-26T03:34:10.281Z,0
2016-08-26T03:35:10.261Z,0
2016-08-26T03:36:10.248Z,0
2016-08-26T03:37:10.228Z,0
2016-08-26T03:38:10.213Z,0
2016-08-26T03:39:10.202Z,0
2016-08-26T03:40:10.179Z,0
2016-08-26T03:41:10.162Z,0
2016-08-26T03:42:10.147Z,0
2016-08-26T03:43:10.132Z,0
2016-08-26T03:44:10.115Z,0
2016-08-26T03:45:10.103Z,0
2016-08-26T03:46:10.093Z,0
2016-08-26T03:47:10.066Z,0
2016-08-26T03:48:10.050Z,0
2016-08-26T03:49:10.038Z,0
2016-08-26T03:50:10.020Z,0
2016-08-26T03:51:10.003Z,0
2016-08-26T03:52:09.986Z,0
2016-08-26T03:53:09.969Z,0
2016-08-26T03:54:09.956Z,4
2016-08-26T03:55:09.937Z,4
2016-08-26T03:56:09.919Z,0
2016-08-26T03:57:09.906Z,4
2016-08-26T03:58:09.887Z,4
2016-08-26T03:59:09.882Z,4
2016-08-26T04:00:09.857Z,4
2016-08-26T04:01:09.834Z,4
2016-08-26T04:02:09.821Z,4
2016-08-26T04:03:09.809Z,8
2016-08-26T04:04:09.803Z,8
2016-08-26T04:05:09.770Z,8
2016-08-26T04:06:09.756Z,12
2016-08-26T04:07:09.740Z,16
2016-08-26T04:08:09.731Z,16
2016-08-26T04:09:09.710Z,20
2016-08-26T04:10:09.707Z,24
2016-08-26T04:11:09.676Z,28
2016-08-26T04:12:09.663Z,36
2016-08-26T04:13:09.642Z,40
2016-08-26T04:14:09.631Z,48
2016-08-26T04:15:09.613Z,56
2016-08-26T04:16:09.595Z,64
2016-08-26T04:17:09.581Z,72
2016-08-26T04:18:09.562Z,80
2016-08-26T04:19:09.547Z,96
2016-08-26T04:20:09.529Z,108
2016-08-26T04:21:09.513Z,124
2016-08-26T04:22:09.498Z,144
2016-08-26T04:23:09.482Z,160
2016-08-26T04:24:09.474Z,184
2016-08-26T04:25:09.448Z,208
2016-08-26T04:26:09.435Z,232
2016-08-26T04:27:09.417Z,256
2016-08-26T04:28:09.396Z,284
2016-08-26T04:29:09.380Z,316
2016-08-26T04:30:09.370Z,348
2016-08-26T04:31:09.349Z,380
2016-08-26T04:32:09.336Z,416
2016-08-26T04:33:09.320Z,456
2016-08-26T04:34:09.299Z,496
2016-08-26T04:35:09.283Z,536
2016-08-26T04:36:09.275Z,580
2016-08-26T04:37:09.259Z,628
2016-08-26T04:38:09.237Z,676
2016-08-26T04:39:09.220Z,724
2016-08-26T04:40:09.201Z,776
2016-08-26T04:41:09.189Z,828
2016-08-26T04:42:09.171Z,880
2016-08-26T04:43:09.155Z,940
2016-08-26T04:44:09.141Z,996
2016-08-26T04:45:09.123Z,1056
2016-08-26T04:46:09.107Z,1112
2016-08-26T04:47:09.085Z,1172
2016-08-26T04:48:09.085Z,1232
2016-08-26T04:49:09.065Z,1292
2016-08-26T04:50:09.038Z,1352
2016-08-26T04:51:09.028Z,1420
2016-08-26T04:52:09.013Z,1480
2016-08-26T04:53:08.995Z,1544
2016-08-26T04:54:08.974Z,1604
2016-08-26T04:55:08.957Z,1672
2016-08-26T04:56:08.944Z,1732
2016-08-26T04:57:08.922Z,1784
2016-08-26T04:58:08.907Z,1844
2016-08-26T04:59:08.894Z,1904
2016-08-26T05:00:08.879Z,1964
2016-08-26T05:01:08.864Z,2020
2016-08-26T05:02:08.842Z,2084
2016-08-26T05:03:08.826Z,2144
2016-08-26T05:04:08.811Z,2204
2016-08-26T05:05:08.796Z,2264
2016-08-26T05:06:09.474Z,2332
2016-08-26T05:07:08.763Z,2388
2016-08-26T05:08:08.743Z,2448
2016-08-26T05:09:08.728Z,2504
2016-08-26T05:10:08.715Z,2560
2016-08-26T05:11:08.695Z,2624
2016-08-26T05:12:08.681Z,2676
2016-08-26T05:13:08.669Z,2732
2016-08-26T05:14:08.648Z,2792
2016-08-26T05:15:08.645Z,2852
2016-08-26T05:16:09.313Z,2912
2016-08-26T05:17:08.598Z,2968
2016-08-26T05:18:08.585Z,3032
2016-08-26T05:19:08.570Z,3096
2016-08-26T05:20:08.555Z,3156
2016-08-26T05:21:08.552Z,3228
2016-08-26T05:22:08.520Z,3300
2016-08-26T05:23:08.502Z,3372
2016-08-26T05:24:08.496Z,3448
2016-08-26T05:25:08.478Z,3512
2016-08-26T05:26:08.455Z,3564
2016-08-26T05:27:08.457Z,3608
2016-08-26T05:28:08.423Z,3640
2016-08-26T05:29:08.418Z,3664
2016-08-26T05:30:08.400Z,3676
2016-08-26T05:31:08.372Z,3696
2016-08-26T05:32:08.362Z,3712
2016-08-26T05:33:08.348Z,3724
2016-08-26T05:34:08.327Z,3744
2016-08-26T05:35:08.313Z,3768
2016-08-26T05:36:08.291Z,3788
2016-08-26T05:37:08.281Z,3812
2016-08-26T05:38:08.267Z,3840
2016-08-26T05:39:08.246Z,3872
2016-08-26T05:40:08.239Z,3904
2016-08-26T05:41:08.219Z,3944
2016-08-26T05:42:08.202Z,3976
2016-08-26T05:43:08.190Z,4004
2016-08-26T05:44:08.173Z,4032
2016-08-26T05:45:08.160Z,4064
2016-08-26T05:46:08.145Z,4100
2016-08-26T05:47:08.131Z,4140
2016-08-26T05:48:08.106Z,4180
2016-08-26T05:49:08.102Z,4224
2016-08-26T05:50:08.088Z,4272
2016-08-26T05:51:08.061Z,4324
2016-08-26T05:52:08.046Z,4388
2016-08-26T05:53:08.029Z,4480
2016-08-26T05:54:08.016Z,4548
2016-08-26T05:55:07.997Z,4612
2016-08-26T05:56:07.981Z,4684
2016-08-26T05:57:07.969Z,4736
2016-08-26T05:58:07.954Z,4796
2016-08-26T05:59:07.941Z,4848
2016-08-26T06:00:07.923Z,4888
2016-08-26T06:01:07.906Z,4924
2016-08-26T06:02:07.893Z,4964
2016-08-26T06:03:07.886Z,4996
2016-08-26T06:04:07.863Z,5036
2016-08-26T06:05:07.870Z,5076
2016-08-26T06:06:07.835Z,5108
2016-08-26T06:07:07.816Z,5136
2016-08-26T06:08:07.820Z,5160
2016-08-26T06:09:07.787Z,5180
2016-08-26T06:10:07.777Z,5196
2016-08-26T06:11:07.756Z,5216
2016-08-26T06:12:07.737Z,5236
2016-08-26T06:13:07.725Z,5264
2016-08-26T06:14:07.708Z,5292
2016-08-26T06:15:07.691Z,5320
2016-08-26T06:16:07.680Z,5344
2016-08-26T06:17:07.664Z,5380
2016-08-26T06:18:07.647Z,5424
2016-08-26T06:19:07.637Z,5480
2016-08-26T06:20:07.623Z,5636
2016-08-26T06:21:07.604Z,8356
2016-08-26T06:22:07.590Z,13848
2016-08-26T06:23:07.577Z,18496
2016-08-26T06:24:07.566Z,19104
2016-08-26T06:25:07.556Z,19392
2016-08-26T06:26:07.530Z,19520
2016-08-26T06:27:07.524Z,19744
2016-08-26T06:28:07.501Z,20032
2016-08-26T06:29:07.487Z,19968
2016-08-26T06:30:07.478Z,20192
2016-08-26T06:31:07.463Z,20800
2016-08-26T06:32:07.449Z,20960
2016-08-26T06:33:07.436Z,20960
2016-08-26T06:34:07.421Z,20672
2016-08-26T06:35:07.411Z,20608
2016-08-26T06:36:07.398Z,21056
2016-08-26T06:37:07.380Z,21376
2016-08-26T06:38:07.383Z,21920
2016-08-26T06:39:07.356Z,22784
2016-08-26T06:40:07.350Z,24000
2016-08-26T06:41:07.358Z,24704
2016-08-26T06:42:07.322Z,23776
2016-08-26T06:43:07.307Z,18208
2016-08-26T06:44:07.297Z,11276
2016-08-26T06:45:07.289Z,6828
2016-08-26T06:46:07.277Z,6688
2016-08-26T06:47:07.277Z,6680
2016-08-26T06:48:07.261Z,6720
2016-08-26T06:49:07.244Z,6792
2016-08-26T06:50:07.237Z,6904
2016-08-26T06:51:07.217Z,7032
2016-08-26T06:52:07.205Z,7200
2016-08-26T06:53:07.198Z,7368
2016-08-26T06:54:07.182Z,7516
2016-08-26T06:55:07.173Z,7644
2016-08-26T06:56:07.164Z,7728
2016-08-26T06:57:07.147Z,7764
2016-08-26T06:58:07.130Z,7768
2016-08-26T06:59:07.130Z,7820
2016-08-26T07:00:07.935Z,11640
2016-08-26T07:01:07.097Z,21056
2016-08-26T07:02:07.094Z,28896
2016-08-26T07:03:07.077Z,30048
2016-08-26T07:04:07.065Z,29888
2016-08-26T07:05:07.053Z,30208
2016-08-26T07:06:07.037Z,30208
2016-08-26T07:07:07.030Z,28992
2016-08-26T07:08:07.019Z,28064
2016-08-26T07:09:07.003Z,26912
2016-08-26T07:10:06.997Z,26080
2016-08-26T07:11:06.984Z,26208
2016-08-26T07:12:06.971Z,23808
2016-08-26T07:13:06.962Z,18336
2016-08-26T07:14:06.948Z,21216
2016-08-26T07:15:06.943Z,20480
2016-08-26T07:16:06.943Z,17952
2016-08-26T07:17:06.919Z,13992
2016-08-26T07:18:07.616Z,11460
2016-08-26T07:19:06.910Z,10260
2016-08-26T07:20:06.896Z,9904
2016-08-26T07:21:06.895Z,10176
2016-08-26T07:22:07.568Z,10532
2016-08-26T07:23:06.874Z,10836
2016-08-26T07:24:07.653Z,12420
2016-08-26T07:25:06.851Z,18400
2016-08-26T07:26:07.540Z,24736
2016-08-26T07:27:06.829Z,25184
2016-08-26T07:28:06.822Z,36864
2016-08-26T07:29:06.817Z,38688
2016-08-26T07:30:08.235Z,32128
2016-08-26T07:31:06.797Z,25056
2016-08-26T07:32:06.783Z,12784
2016-08-26T07:33:07.471Z,22368
2016-08-26T07:34:06.769Z,30144
2016-08-26T07:35:06.760Z,28992
2016-08-26T07:36:06.751Z,26560
2016-08-26T07:37:06.742Z,28256
2016-08-26T07:38:06.738Z,27392
2016-08-26T07:39:06.724Z,21472
2016-08-26T07:40:06.716Z,18176
2016-08-26T07:41:06.716Z,23264
2016-08-26T07:42:06.702Z,27936
2016-08-26T07:43:06.700Z,28352
2016-08-26T07:44:06.699Z,28640
2016-08-26T07:45:06.682Z,27616
2016-08-26T07:46:06.744Z,20096
2016-08-26T07:47:06.663Z,17504
2016-08-26T07:48:06.659Z,22560
2016-08-26T07:49:06.644Z,32320
2016-08-26T07:50:06.645Z,33024
2016-08-26T07:51:06.638Z,35776
2016-08-26T07:52:06.626Z,36320
2016-08-26T07:53:06.726Z,36128
2016-08-26T07:54:06.609Z,27648
2016-08-26T07:55:06.607Z,22976
2016-08-26T07:56:06.599Z,31488
2016-08-26T07:57:06.588Z,34656
2016-08-26T07:58:06.587Z,30656
2016-08-26T07:59:06.581Z,27232
2016-08-26T08:00:06.573Z,22528
2016-08-26T08:01:06.570Z,16080
2016-08-26T08:02:06.558Z,11380
2016-08-26T08:03:06.549Z,9696
2016-08-26T08:04:07.307Z,9656
2016-08-26T08:05:06.540Z,9636
2016-08-26T08:06:06.533Z,9564
2016-08-26T08:07:06.524Z,9516
2016-08-26T08:08:06.515Z,9536
2016-08-26T08:09:06.507Z,9520
2016-08-26T08:10:06.503Z,9496
2016-08-26T08:11:06.493Z,9356
2016-08-26T08:12:06.485Z,9040
2016-08-26T08:13:06.488Z,8460
2016-08-26T08:14:06.469Z,8524
2016-08-26T08:15:06.460Z,8416
2016-08-26T08:16:06.457Z,8224
2016-08-26T08:17:06.443Z,8276
2016-08-26T08:18:06.433Z,8172
2016-08-26T08:19:06.427Z,8176
2016-08-26T08:20:06.421Z,8172
2016-08-26T08:21:06.409Z,8144
2016-08-26T08:22:06.398Z,7328
2016-08-26T08:23:06.390Z,8424
2016-08-26T08:24:06.382Z,8480
2016-08-26T08:25:06.369Z,8464
2016-08-26T08:26:06.360Z,8512
2016-08-26T08:27:06.349Z,8320
2016-08-26T08:28:06.343Z,8548
2016-08-26T08:29:06.333Z,8788
2016-08-26T08:30:06.321Z,8472
2016-08-26T08:31:06.311Z,8736
2016-08-26T08:32:06.304Z,8944
2016-08-26T08:33:06.289Z,9072
2016-08-26T08:34:06.296Z,8672
2016-08-26T08:35:06.276Z,8780
2016-08-26T08:36:06.257Z,9016
2016-08-26T08:37:06.250Z,9584
2016-08-26T08:38:06.243Z,15040
2016-08-26T08:39:06.229Z,15552
2016-08-26T08:40:06.223Z,11540
2016-08-26T08:41:06.208Z,10140
2016-08-26T08:42:06.195Z,9768
2016-08-26T08:43:06.192Z,9280
2016-08-26T08:44:06.181Z,9180
2016-08-26T08:45:06.171Z,8992
2016-08-26T08:46:06.158Z,8832
2016-08-26T08:47:06.148Z,8760
2016-08-26T08:48:06.160Z,8676
2016-08-26T08:49:06.127Z,8424
2016-08-26T08:50:06.126Z,8292
2016-08-26T08:51:06.109Z,8248
2016-08-26T08:52:06.097Z,8176
2016-08-26T08:53:06.095Z,8136
2016-08-26T08:54:06.079Z,8144
2016-08-26T08:55:06.067Z,8188
2016-08-26T08:56:06.058Z,8244
2016-08-26T08:57:06.050Z,8272
2016-08-26T08:58:06.035Z,8292
2016-08-26T08:59:06.026Z,8272
2016-08-26T09:00:06.022Z,8272
2016-08-26T09:01:06.012Z,8228
2016-08-26T09:02:06.001Z,8192
2016-08-26T09:03:05.986Z,8184
2016-08-26T09:04:05.975Z,8228
2016-08-26T09:05:05.966Z,8252
2016-08-26T09:06:05.958Z,8300
2016-08-26T09:07:05.948Z,8372
2016-08-26T09:08:05.938Z,8452
2016-08-26T09:09:05.928Z,8496
2016-08-26T09:10:05.921Z,8560
2016-08-26T09:11:05.909Z,8596
2016-08-26T09:12:05.895Z,8548
2016-08-26T09:13:05.886Z,8412
2016-08-26T09:14:05.977Z,8396
2016-08-26T09:15:05.864Z,8352
2016-08-26T09:16:05.855Z,8328
2016-08-26T09:17:05.842Z,8340
2016-08-26T09:18:05.832Z,8376
2016-08-26T09:19:05.827Z,8472
2016-08-26T09:20:05.829Z,8532
2016-08-26T09:21:05.818Z,8436
2016-08-26T09:22:05.792Z,8608
2016-08-26T09:23:05.784Z,9072
2016-08-26T09:24:05.772Z,9080
2016-08-26T09:25:05.760Z,9036
2016-08-26T09:26:05.757Z,9000
2016-08-26T09:27:05.740Z,8996
2016-08-26T09:28:05.727Z,8872
2016-08-26T09:29:05.723Z,9024
2016-08-26T09:30:05.721Z,9088
2016-08-26T09:31:05.701Z,9152
2016-08-26T09:32:05.740Z,9220
2016-08-26T09:33:05.679Z,9240
2016-08-26T09:34:05.667Z,9200
2016-08-26T09:35:05.671Z,9168
2016-08-26T09:36:05.650Z,9188
2016-08-26T09:37:05.637Z,9216
2016-08-26T09:38:05.637Z,9296
2016-08-26T09:39:05.622Z,9376
2016-08-26T09:40:05.615Z,9424
2016-08-26T09:41:05.605Z,9464
2016-08-26T09:42:06.294Z,9528
2016-08-26T09:43:05.576Z,9688
2016-08-26T09:44:05.573Z,10004
2016-08-26T09:45:05.567Z,10452
2016-08-26T09:46:05.550Z,11012
2016-08-26T09:47:05.543Z,11496
2016-08-26T09:48:05.532Z,11800
2016-08-26T09:49:05.524Z,12092
2016-08-26T09:50:05.515Z,12136
2016-08-26T09:51:05.504Z,12200
2016-08-26T09:52:05.494Z,12292
2016-08-26T09:53:05.483Z,12248
2016-08-26T09:54:05.474Z,12128
2016-08-26T09:55:05.467Z,11824
2016-08-26T09:56:06.148Z,11276
2016-08-26T09:57:05.443Z,10820
2016-08-26T09:58:05.437Z,10196
2016-08-26T09:59:05.435Z,10228
2016-08-26T10:00:05.416Z,10200
2016-08-26T10:01:05.425Z,10096
2016-08-26T10:02:06.094Z,9268
2016-08-26T10:03:05.389Z,9824
2016-08-26T10:04:05.382Z,9656
2016-08-26T10:05:05.373Z,9456
2016-08-26T10:06:06.055Z,9304
2016-08-26T10:07:05.351Z,9176
2016-08-26T10:08:05.340Z,9132
2016-08-26T10:09:05.334Z,9108
2016-08-26T10:10:05.323Z,9072
2016-08-26T10:11:05.313Z,8984
2016-08-26T10:12:05.304Z,8804
2016-08-26T10:13:05.295Z,8804
2016-08-26T10:14:05.290Z,8776
2016-08-26T10:15:05.277Z,8696
2016-08-26T10:16:05.267Z,8592
2016-08-26T10:17:05.262Z,8556
2016-08-26T10:18:05.254Z,8564
2016-08-26T10:19:05.243Z,8600
2016-08-26T10:20:05.229Z,8544
2016-08-26T10:21:05.223Z,8712
2016-08-26T10:22:05.212Z,8824
2016-08-26T10:23:05.198Z,8964
2016-08-26T10:24:05.194Z,9104
2016-08-26T10:25:05.184Z,9316
2016-08-26T10:26:05.170Z,9612
2016-08-26T10:27:05.165Z,9644
2016-08-26T10:28:05.157Z,10152
2016-08-26T10:29:05.145Z,10540
2016-08-26T10:30:05.142Z,10700
2016-08-26T10:31:05.127Z,10788
2016-08-26T10:32:05.122Z,10848
2016-08-26T10:33:05.113Z,10940
2016-08-26T10:34:05.099Z,11060
2016-08-26T10:35:05.091Z,11208
2016-08-26T10:36:05.093Z,11356
2016-08-26T10:37:05.075Z,11496
2016-08-26T10:38:05.062Z,11592
2016-08-26T10:39:05.061Z,11644
2016-08-26T10:40:05.047Z,11660
2016-08-26T10:41:05.041Z,11636
2016-08-26T10:42:05.035Z,11704
2016-08-26T10:43:05.028Z,11796
2016-08-26T10:44:05.012Z,11932
2016-08-26T10:45:05.013Z,12140
2016-08-26T10:46:04.999Z,12276
2016-08-26T10:47:04.993Z,12376
2016-08-26T10:48:04.976Z,12536
2016-08-26T10:49:04.974Z,12636
2016-08-26T10:50:04.964Z,12756
2016-08-26T10:51:04.972Z,12872
2016-08-26T10:52:04.949Z,12944
2016-08-26T10:53:04.947Z,13012
2016-08-26T10:54:04.932Z,13116
2016-08-26T10:55:04.922Z,13096
2016-08-26T10:56:04.923Z,13424
2016-08-26T10:57:04.907Z,13244
2016-08-26T10:58:04.897Z,12964
2016-08-26T10:59:04.890Z,13168
2016-08-26T11:00:04.890Z,13048
2016-08-26T11:01:04.877Z,13156
2016-08-26T11:02:04.866Z,13612
2016-08-26T11:03:04.864Z,14096
2016-08-26T11:04:04.852Z,13948
2016-08-26T11:05:04.844Z,13784
2016-08-26T11:06:05.533Z,12748
2016-08-26T11:07:04.832Z,12212
2016-08-26T11:08:04.837Z,12200
2016-08-26T11:09:04.821Z,12948
2016-08-26T11:10:04.816Z,14008
2016-08-26T11:11:04.804Z,14232
2016-08-26T11:12:04.791Z,14892
2016-08-26T11:13:04.780Z,14480
2016-08-26T11:14:04.777Z,15048
2016-08-26T11:15:04.775Z,14076
2016-08-26T11:16:04.760Z,14868
2016-08-26T11:17:04.757Z,15612
2016-08-26T11:18:04.743Z,15464
2016-08-26T11:19:04.738Z,15840
2016-08-26T11:20:04.730Z,16008
2016-08-26T11:21:04.723Z,16368
2016-08-26T11:22:04.715Z,16192
2016-08-26T11:23:04.708Z,15336
2016-08-26T11:24:04.698Z,15488
2016-08-26T11:25:04.690Z,15036
2016-08-26T11:26:04.686Z,15716
2016-08-26T11:27:04.683Z,16620
2016-08-26T11:28:04.667Z,16772
2016-08-26T11:29:04.663Z,16768
2016-08-26T11:30:04.661Z,15700
2016-08-26T11:31:04.649Z,15792
2016-08-26T11:32:04.639Z,16168
2016-08-26T11:33:04.632Z,16376
2016-08-26T11:34:04.629Z,17652
2016-08-26T11:35:04.613Z,17672
2016-08-26T11:36:04.612Z,17548
2016-08-26T11:37:04.601Z,17408
2016-08-26T11:38:04.595Z,17856
2016-08-26T11:39:04.586Z,17268
2016-08-26T11:40:04.579Z,17584
2016-08-26T11:41:04.579Z,18196
2016-08-26T11:42:04.569Z,18624
2016-08-26T11:43:04.553Z,18400
2016-08-26T11:44:04.554Z,18144
2016-08-26T11:45:04.539Z,18464
2016-08-26T11:46:04.532Z,18912
2016-08-26T11:47:04.526Z,18688
2016-08-26T11:48:04.514Z,18816
2016-08-26T11:49:04.508Z,18176
2016-08-26T11:50:04.500Z,17280
2016-08-26T11:51:04.502Z,16208
2016-08-26T11:52:04.480Z,16092
2016-08-26T11:53:04.479Z,16160
2016-08-26T11:54:04.468Z,16644
2016-08-26T11:55:04.465Z,15340
2016-08-26T11:56:04.454Z,15492
2016-08-26T11:57:04.449Z,15820
2016-08-26T11:58:04.438Z,14476
2016-08-26T11:59:04.437Z,13924
2016-08-26T12:00:04.425Z,13984
2016-08-26T12:01:04.422Z,13024
2016-08-26T12:02:04.412Z,12548
2016-08-26T12:03:04.403Z,13316
2016-08-26T12:04:05.087Z,13416
2016-08-26T12:05:04.397Z,12732
2016-08-26T12:06:04.379Z,11756
2016-08-26T12:07:04.383Z,11908
2016-08-26T12:08:04.362Z,11728
2016-08-26T12:09:04.364Z,12948
2016-08-26T12:10:04.349Z,12512
2016-08-26T12:11:04.345Z,12868
2016-08-26T12:12:04.337Z,12516
2016-08-26T12:13:04.325Z,12608
2016-08-26T12:14:04.318Z,13724
2016-08-26T12:15:04.320Z,13060
2016-08-26T12:16:04.298Z,13084
2016-08-26T12:17:04.297Z,12816
2016-08-26T12:18:04.287Z,12112
2016-08-26T12:19:04.272Z,12404
2016-08-26T12:20:04.269Z,12332
2016-08-26T12:21:04.262Z,12492
2016-08-26T12:22:04.260Z,12208
2016-08-26T12:23:04.245Z,11864
2016-08-26T12:24:04.239Z,11348
2016-08-26T12:25:04.230Z,10528
2016-08-26T12:26:04.224Z,9904
2016-08-26T12:27:04.220Z,10876
2016-08-26T12:28:04.205Z,10744
2016-08-26T12:29:04.198Z,11628
2016-08-26T12:30:04.189Z,11896
2016-08-26T12:31:04.181Z,11744
2016-08-26T12:32:04.176Z,11504
2016-08-26T12:33:04.169Z,11304
2016-08-26T12:34:04.155Z,11164
2016-08-26T12:35:04.154Z,11032
2016-08-26T12:36:04.143Z,11052
2016-08-26T12:37:04.130Z,10968
2016-08-26T12:38:04.127Z,10684
2016-08-26T12:39:04.119Z,10856
2016-08-26T12:40:04.108Z,10448
2016-08-26T12:41:04.102Z,10756
2016-08-26T12:42:04.095Z,10520
2016-08-26T12:43:04.085Z,11108
2016-08-26T12:44:04.090Z,11688
2016-08-26T12:45:04.077Z,11700
2016-08-26T12:46:04.061Z,11508
2016-08-26T12:47:04.078Z,11408
2016-08-26T12:48:04.051Z,11392
2016-08-26T12:49:04.041Z,11432
2016-08-26T12:50:04.035Z,11496
2016-08-26T12:51:04.025Z,11488
2016-08-26T12:52:04.018Z,11412
2016-08-26T12:53:04.011Z,11388
2016-08-26T12:54:04.009Z,11296
2016-08-26T12:55:03.998Z,11248
2016-08-26T12:56:03.987Z,11140
2016-08-26T12:57:03.979Z,11136
2016-08-26T12:58:03.973Z,11480
2016-08-26T12:59:03.985Z,11688
2016-08-26T13:00:03.956Z,11680
2016-08-26T13:01:03.948Z,11896
2016-08-26T13:02:03.938Z,11376
2016-08-26T13:03:03.934Z,11600
2016-08-26T13:04:03.924Z,11456
2016-08-26T13:05:03.917Z,11560
2016-08-26T13:06:03.908Z,12136
2016-08-26T13:07:03.899Z,12056
2016-08-26T13:08:03.892Z,13040
2016-08-26T13:09:03.893Z,13032
2016-08-26T13:10:03.882Z,12960
2016-08-26T13:11:03.872Z,13288
2016-08-26T13:12:03.860Z,13688
2016-08-26T13:13:03.880Z,13700
2016-08-26T13:14:03.854Z,13312
2016-08-26T13:15:03.837Z,13212
2016-08-26T13:16:03.831Z,12956
2016-08-26T13:17:03.824Z,12752
2016-08-26T13:18:03.813Z,12584
2016-08-26T13:19:03.810Z,12236
2016-08-26T13:20:03.802Z,10456
2016-08-26T13:21:03.790Z,10416
2016-08-26T13:22:03.785Z,11632
2016-08-26T13:23:03.786Z,11896
2016-08-26T13:24:03.770Z,12456
2016-08-26T13:25:03.764Z,12504
2016-08-26T13:26:03.757Z,12424
2016-08-26T13:27:03.749Z,12412
2016-08-26T13:28:03.741Z,12648
2016-08-26T13:29:03.732Z,12704
2016-08-26T13:30:03.735Z,12648
2016-08-26T13:31:03.719Z,12436
2016-08-26T13:32:03.710Z,12304
2016-08-26T13:33:03.707Z,12212
2016-08-26T13:34:03.699Z,12264
2016-08-26T13:35:03.692Z,12400